createdAt,value
2023-05-05T00:00:27.688Z,12.39
2023-05-05T00:01:31.094Z,12.34
2023-05-05T00:02:34.397Z,12.36
2023-05-05T00:03:37.836Z,12.38
2023-05-05T00:04:41.039Z,12.42
2023-05-05T00:05:43.978Z,12.45
2023-05-05T00:06:47.470Z,12.36
2023-05-05T00:07:50.570Z,12.31
2023-05-05T00:08:53.535Z,12.31
2023-05-05T00:09:56.880Z,12.37
2023-05-05T00:11:00.253Z,12.25
2023-05-05T00:12:03.274Z,12.23
2023-05-05T00:13:06.796Z,12.21
2023-05-05T00:14:09.897Z,12.17
2023-05-05T00:15:12.899Z,12.12
2023-05-05T00:16:16.527Z,12.08
2023-05-05T00:17:19.648Z,12.12
2023-05-05T00:18:22.945Z,12.08
2023-05-05T00:19:25.852Z,12.02
2023-05-05T00:20:28.842Z,11.96
2023-05-05T00:21:32.109Z,11.91
2023-05-05T00:22:35.001Z,11.87
2023-05-05T00:23:37.883Z,11.91
2023-05-05T00:24:41.130Z,12.05
2023-05-05T00:25:44.494Z,12.00
2023-05-05T00:26:47.403Z,11.92
2023-05-05T00:27:50.803Z,11.87
2023-05-05T00:28:53.845Z,11.93
2023-05-05T00:29:57.137Z,11.88
2023-05-05T00:31:00.189Z,11.95
2023-05-05T00:32:03.203Z,11.89
2023-05-05T00:33:06.298Z,11.84
2023-05-05T00:34:09.173Z,11.89
2023-05-05T00:35:12.232Z,11.86
2023-05-05T00:36:15.224Z,11.82
2023-05-05T00:37:18.147Z,11.74
2023-05-05T00:38:21.076Z,11.76
2023-05-05T00:39:24.565Z,11.78
2023-05-05T00:40:27.989Z,11.75
2023-05-05T00:41:30.977Z,11.76
2023-05-05T00:42:48.567Z,11.73
2023-05-05T00:43:51.370Z,11.75
2023-05-05T00:44:54.240Z,11.75
2023-05-05T00:46:02.509Z,11.71
2023-05-05T00:47:06.205Z,11.67
2023-05-05T00:48:09.667Z,11.64
2023-05-05T00:49:12.637Z,11.65
2023-05-05T00:50:25.484Z,11.74
2023-05-05T00:51:29.056Z,11.72
2023-05-05T00:52:32.235Z,11.70
2023-05-05T00:53:36.100Z,11.78
2023-05-05T00:54:39.508Z,11.83
2023-05-05T00:55:42.723Z,11.75
2023-05-05T00:56:46.153Z,11.66
2023-05-05T00:57:49.869Z,11.82
2023-05-05T00:58:53.035Z,11.76
2023-05-05T00:59:56.612Z,11.72
2023-05-05T01:00:59.541Z,11.77
2023-05-05T01:02:02.722Z,11.71
2023-05-05T01:03:06.372Z,11.74
2023-05-05T01:04:09.512Z,11.76
2023-05-05T01:05:14.701Z,11.75
2023-05-05T01:06:23.585Z,11.71
2023-05-05T01:08:06.501Z,11.66
2023-05-05T01:09:37.601Z,11.68
2023-05-05T01:10:53.256Z,11.80
2023-05-05T01:12:18.201Z,11.76
2023-05-05T01:13:39.777Z,11.80
2023-05-05T01:14:50.603Z,11.83
2023-05-05T01:16:07.568Z,11.84
2023-05-05T01:17:23.367Z,11.86
2023-05-05T01:18:50.649Z,11.83
2023-05-05T01:20:25.119Z,11.70
2023-05-05T01:21:38.874Z,11.78
2023-05-05T01:22:53.607Z,11.74
2023-05-05T01:24:34.611Z,11.78
2023-05-05T01:25:49.370Z,11.79
2023-05-05T01:27:11.331Z,11.77
2023-05-05T01:28:14.165Z,11.73
2023-05-05T01:29:28.108Z,11.82
2023-05-05T01:30:34.058Z,11.74
2023-05-05T01:31:52.295Z,11.65
2023-05-05T01:33:01.149Z,11.58
2023-05-05T01:34:10.452Z,11.51
2023-05-05T01:35:21.689Z,11.46
2023-05-05T01:36:28.958Z,11.45
2023-05-05T01:37:51.206Z,11.45
2023-05-05T01:39:01.672Z,11.43
2023-05-05T01:40:08.572Z,11.35
2023-05-05T01:41:17.728Z,11.28
2023-05-05T01:42:22.655Z,11.21
2023-05-05T01:43:29.879Z,11.16
2023-05-05T01:44:36.866Z,11.16
2023-05-05T01:45:43.887Z,11.12
2023-05-05T01:46:49.325Z,11.05
2023-05-05T01:47:54.917Z,11.02
2023-05-05T01:48:59.556Z,10.93
2023-05-05T01:50:04.642Z,10.85
2023-05-05T01:51:09.297Z,10.82
2023-05-05T01:52:13.765Z,10.73
2023-05-05T01:53:19.303Z,10.66
2023-05-05T01:54:24.962Z,10.59
2023-05-05T01:55:29.785Z,10.55
2023-05-05T01:56:33.644Z,10.52
2023-05-05T01:57:43.896Z,10.46
2023-05-05T01:58:47.923Z,10.43
2023-05-05T01:59:53.062Z,10.35
2023-05-05T02:00:57.912Z,10.28
2023-05-05T02:02:03.745Z,10.28
2023-05-05T02:03:08.822Z,10.21
2023-05-05T02:04:14.647Z,10.18
2023-05-05T02:05:19.851Z,10.15
2023-05-05T02:06:24.298Z,10.09
2023-05-05T02:07:28.459Z,10.04
2023-05-05T02:08:32.950Z,10.00
2023-05-05T02:09:37.845Z,9.96
2023-05-05T02:10:41.364Z,9.91
2023-05-05T02:11:44.463Z,9.90
2023-05-05T02:12:48.078Z,9.87
2023-05-05T02:13:52.277Z,9.84
2023-05-05T02:14:57.968Z,9.76
2023-05-05T02:16:01.997Z,9.80
2023-05-05T02:17:05.399Z,9.70
2023-05-05T02:18:09.900Z,9.65
2023-05-05T02:19:14.780Z,9.64
2023-05-05T02:20:20.091Z,9.68
2023-05-05T02:21:23.445Z,9.57
2023-05-05T02:22:26.493Z,9.57
2023-05-05T02:23:30.369Z,9.47
2023-05-05T02:24:33.789Z,9.40
2023-05-05T02:25:46.132Z,9.34
2023-05-05T02:26:52.308Z,9.32
2023-05-05T02:27:58.145Z,9.27
2023-05-05T02:29:08.214Z,9.22
2023-05-05T02:30:14.630Z,9.22
2023-05-05T02:31:21.012Z,9.16
2023-05-05T02:32:39.756Z,9.20
2023-05-05T02:33:44.715Z,9.11
2023-05-05T02:34:50.218Z,9.12
2023-05-05T02:35:55.785Z,9.25
2023-05-05T02:37:03.081Z,9.09
2023-05-05T02:38:08.414Z,9.05
2023-05-05T02:39:15.469Z,8.99
2023-05-05T02:40:24.931Z,8.96
2023-05-05T02:41:29.946Z,8.96
2023-05-05T02:42:37.141Z,8.90
2023-05-05T02:43:42.806Z,8.83
2023-05-05T02:44:46.683Z,8.85
2023-05-05T02:45:49.963Z,8.88
2023-05-05T02:46:54.562Z,8.85
2023-05-05T02:47:57.843Z,8.86
2023-05-05T02:49:00.989Z,8.93
2023-05-05T02:50:07.577Z,8.96
2023-05-05T02:51:10.756Z,8.99
2023-05-05T02:52:14.767Z,9.01
2023-05-05T02:53:19.670Z,9.05
2023-05-05T02:54:22.799Z,9.08
2023-05-05T02:55:38.417Z,9.11
2023-05-05T02:56:47.376Z,9.14
2023-05-05T02:58:01.140Z,9.18
2023-05-05T02:59:18.160Z,9.19
2023-05-05T03:00:30.335Z,9.21
2023-05-05T03:02:00.912Z,9.31
2023-05-05T03:03:07.531Z,9.22
2023-05-05T03:04:21.898Z,9.22
2023-05-05T03:05:31.295Z,9.22
2023-05-05T03:06:43.056Z,9.24
2023-05-05T03:08:11.361Z,9.23
2023-05-05T03:09:32.633Z,9.24
2023-05-05T03:10:44.476Z,9.28
2023-05-05T03:11:53.624Z,9.30
2023-05-05T03:13:00.334Z,9.25
2023-05-05T03:14:10.486Z,9.23
2023-05-05T03:15:14.570Z,9.28
2023-05-05T03:16:19.023Z,9.36
2023-05-05T03:17:24.198Z,9.30
2023-05-05T03:18:29.846Z,9.26
2023-05-05T03:19:36.573Z,9.24
2023-05-05T03:20:40.998Z,9.35
2023-05-05T03:21:44.373Z,9.31
2023-05-05T03:22:48.241Z,9.28
2023-05-05T03:23:51.234Z,9.25
2023-05-05T03:24:54.207Z,9.31
2023-05-05T03:25:57.213Z,9.34
2023-05-05T03:27:00.487Z,9.29
2023-05-05T03:28:03.433Z,9.34
2023-05-05T03:29:07.147Z,9.35
2023-05-05T03:30:10.842Z,9.28
2023-05-05T03:31:14.164Z,9.24
2023-05-05T03:32:17.175Z,9.34
2023-05-05T03:33:20.885Z,9.37
2023-05-05T03:34:23.656Z,9.33
2023-05-05T03:35:26.598Z,9.36
2023-05-05T03:36:30.103Z,9.40
2023-05-05T03:37:33.101Z,9.35
2023-05-05T03:38:35.942Z,9.34
2023-05-05T03:39:39.054Z,9.32
2023-05-05T03:40:44.568Z,9.27
2023-05-05T03:41:47.740Z,9.36
2023-05-05T03:42:51.001Z,9.31
2023-05-05T03:43:54.334Z,9.28
2023-05-05T03:44:57.438Z,9.29
2023-05-05T03:46:00.474Z,9.32
2023-05-05T03:47:03.635Z,9.28
2023-05-05T03:48:07.176Z,9.33
2023-05-05T03:49:10.182Z,9.25
2023-05-05T03:50:13.230Z,9.18
2023-05-05T03:51:24.827Z,9.18
2023-05-05T03:52:27.862Z,9.15
2023-05-05T03:53:30.934Z,9.15
2023-05-05T03:54:33.921Z,9.13
2023-05-05T03:55:37.231Z,9.10
2023-05-05T03:56:40.293Z,9.09
2023-05-05T03:57:43.214Z,9.09
2023-05-05T03:58:46.423Z,9.26
2023-05-05T03:59:49.231Z,9.21
2023-05-05T04:00:52.519Z,9.15
2023-05-05T04:01:55.476Z,9.09
2023-05-05T04:02:58.593Z,9.17
2023-05-05T04:04:02.028Z,9.18
2023-05-05T04:05:05.390Z,9.11
2023-05-05T04:06:08.251Z,9.13
2023-05-05T04:07:11.524Z,9.11
2023-05-05T04:08:14.519Z,9.06
2023-05-05T04:09:17.507Z,9.10
2023-05-05T04:10:20.417Z,9.04
2023-05-05T04:11:23.513Z,9.06
2023-05-05T04:12:26.519Z,9.09
2023-05-05T04:13:29.823Z,9.09
2023-05-05T04:14:32.896Z,9.05
2023-05-05T04:15:35.937Z,8.99
2023-05-05T04:16:39.041Z,9.02
2023-05-05T04:17:43.097Z,8.97
2023-05-05T04:18:46.396Z,8.98
2023-05-05T04:19:49.490Z,8.97
2023-05-05T04:20:52.546Z,8.99
2023-05-05T04:21:55.550Z,9.06
2023-05-05T04:22:58.537Z,9.09
2023-05-05T04:24:01.515Z,9.08
2023-05-05T04:25:04.857Z,9.15
2023-05-05T04:26:07.782Z,9.11
2023-05-05T04:27:10.607Z,9.11
2023-05-05T04:28:13.662Z,9.09
2023-05-05T04:29:17.354Z,9.10
2023-05-05T04:30:20.562Z,9.18
2023-05-05T04:31:23.865Z,9.17
2023-05-05T04:32:27.492Z,9.18
2023-05-05T04:33:31.003Z,9.19
2023-05-05T04:34:33.970Z,9.24
2023-05-05T04:35:36.795Z,9.29
2023-05-05T04:36:39.760Z,9.26
2023-05-05T04:37:42.903Z,9.26
2023-05-05T04:38:46.133Z,9.31
2023-05-05T04:39:49.455Z,9.32
2023-05-05T04:40:52.659Z,9.34
2023-05-05T04:41:55.740Z,9.41
2023-05-05T04:42:58.728Z,9.41
2023-05-05T04:44:01.760Z,9.41
2023-05-05T04:45:05.286Z,9.43
2023-05-05T04:46:08.207Z,9.45
2023-05-05T04:47:12.610Z,9.46
2023-05-05T04:48:17.838Z,9.48
2023-05-05T04:49:20.805Z,9.52
2023-05-05T04:50:23.880Z,9.55
2023-05-05T04:51:27.929Z,9.57
2023-05-05T04:52:30.962Z,9.63
2023-05-05T04:53:34.130Z,9.71
2023-05-05T04:54:37.914Z,9.69
2023-05-05T04:55:40.856Z,9.68
2023-05-05T04:56:44.722Z,9.71
2023-05-05T04:57:47.751Z,9.70
2023-05-05T04:58:50.944Z,9.72
2023-05-05T04:59:53.908Z,9.74
2023-05-05T05:00:56.904Z,9.73
2023-05-05T05:02:00.015Z,9.76
2023-05-05T05:03:03.376Z,9.77
2023-05-05T05:04:06.492Z,9.82
2023-05-05T05:05:10.035Z,9.88
2023-05-05T05:06:12.980Z,9.94
2023-05-05T05:07:15.963Z,9.93
2023-05-05T05:08:19.119Z,9.95
2023-05-05T05:09:22.158Z,9.95
2023-05-05T05:10:25.066Z,9.98
2023-05-05T05:11:28.275Z,10.01
2023-05-05T05:12:31.408Z,10.04
2023-05-05T05:13:34.376Z,10.07
2023-05-05T05:14:38.417Z,10.13
2023-05-05T05:15:42.288Z,10.19
2023-05-05T05:16:45.709Z,10.21
2023-05-05T05:17:48.786Z,10.29
2023-05-05T05:18:51.770Z,10.34
2023-05-05T05:19:55.633Z,10.36
2023-05-05T05:20:58.806Z,10.37
2023-05-05T05:22:01.791Z,10.39
2023-05-05T05:23:04.813Z,10.42
2023-05-05T05:24:07.885Z,10.46
2023-05-05T05:25:11.212Z,10.50
2023-05-05T05:26:14.234Z,10.57
2023-05-05T05:27:17.188Z,10.64
2023-05-05T05:28:20.404Z,10.69
2023-05-05T05:29:23.329Z,10.75
2023-05-05T05:30:26.288Z,10.80
2023-05-05T05:31:29.173Z,10.87
2023-05-05T05:32:32.809Z,10.95
2023-05-05T05:33:35.714Z,10.99
2023-05-05T05:34:38.735Z,11.07
2023-05-05T05:35:41.782Z,11.10
2023-05-05T05:36:44.945Z,11.16
2023-05-05T05:37:47.978Z,11.27
2023-05-05T05:38:51.090Z,11.32
2023-05-05T05:39:53.954Z,11.39
2023-05-05T05:40:56.966Z,11.46
2023-05-05T05:42:01.061Z,11.54
2023-05-05T05:43:04.419Z,11.60
2023-05-05T05:44:07.290Z,11.63
2023-05-05T05:45:10.666Z,11.66
2023-05-05T05:46:13.811Z,11.72
2023-05-05T05:47:16.726Z,11.80
2023-05-05T05:48:19.648Z,12.04
2023-05-05T05:49:22.544Z,12.07
2023-05-05T05:50:28.786Z,12.10
2023-05-05T05:51:31.926Z,12.17
2023-05-05T05:52:36.442Z,12.21
2023-05-05T05:53:39.334Z,12.43
2023-05-05T05:54:42.333Z,12.42
2023-05-05T05:55:46.836Z,12.49
2023-05-05T05:56:49.815Z,12.46
2023-05-05T05:57:52.723Z,12.47
2023-05-05T05:58:55.707Z,12.53
2023-05-05T06:00:00.494Z,12.52
2023-05-05T06:01:05.441Z,12.54
2023-05-05T06:02:08.421Z,12.57
2023-05-05T06:03:12.449Z,12.61
2023-05-05T06:04:15.936Z,12.66
2023-05-05T06:05:18.871Z,12.70
2023-05-05T06:06:22.212Z,12.82
2023-05-05T06:07:25.505Z,13.06
2023-05-05T06:08:28.515Z,13.11
2023-05-05T06:09:31.755Z,13.19
2023-05-05T06:10:35.125Z,13.21
2023-05-05T06:11:38.618Z,13.19
2023-05-05T06:12:41.736Z,13.23
2023-05-05T06:13:47.818Z,13.29
2023-05-05T06:14:50.894Z,13.32
2023-05-05T06:15:53.940Z,13.32
2023-05-05T06:16:57.008Z,13.36
2023-05-05T06:18:00.109Z,13.39
2023-05-05T06:19:03.265Z,13.41
2023-05-05T06:20:07.521Z,13.42
2023-05-05T06:21:10.684Z,13.48
2023-05-05T06:22:13.735Z,13.60
2023-05-05T06:23:16.751Z,13.67
2023-05-05T06:24:19.737Z,13.67
2023-05-05T06:25:22.716Z,13.68
2023-05-05T06:26:26.322Z,13.71
2023-05-05T06:27:29.341Z,13.73
2023-05-05T06:28:32.507Z,13.77
2023-05-05T06:29:35.311Z,13.84
2023-05-05T06:30:38.316Z,13.89
2023-05-05T06:31:41.260Z,14.01
2023-05-05T06:32:44.319Z,14.09
2023-05-05T06:33:47.211Z,14.08
2023-05-05T06:34:50.206Z,14.09
2023-05-05T06:35:53.599Z,14.16
2023-05-05T06:36:56.619Z,14.19
2023-05-05T06:37:59.719Z,14.23
2023-05-05T06:39:02.711Z,14.26
2023-05-05T06:40:07.192Z,14.32
2023-05-05T06:41:10.284Z,14.38
2023-05-05T06:42:13.857Z,14.39
2023-05-05T06:43:18.829Z,14.52
2023-05-05T06:44:21.854Z,14.66
2023-05-05T06:45:24.857Z,14.73
2023-05-05T06:46:28.338Z,14.81
2023-05-05T06:47:31.916Z,14.87
2023-05-05T06:48:34.944Z,14.89
2023-05-05T06:49:37.858Z,14.89
2023-05-05T06:50:41.121Z,15.01
2023-05-05T06:51:44.648Z,15.05
2023-05-05T06:52:47.934Z,15.07
2023-05-05T06:53:51.394Z,15.15
2023-05-05T06:54:54.273Z,15.18
2023-05-05T06:55:57.199Z,15.21
2023-05-05T06:57:00.268Z,15.23
2023-05-05T06:58:06.028Z,15.27
2023-05-05T06:59:08.896Z,15.39
2023-05-05T07:00:14.118Z,15.51
2023-05-05T07:01:17.352Z,15.52
2023-05-05T07:02:20.403Z,15.49
2023-05-05T07:03:24.237Z,15.45
2023-05-05T07:04:27.134Z,15.44
2023-05-05T07:05:30.205Z,15.49
2023-05-05T07:06:33.346Z,15.49
2023-05-05T07:07:36.726Z,15.50
2023-05-05T07:08:39.550Z,15.63
2023-05-05T07:09:43.073Z,15.78
2023-05-05T07:10:46.099Z,15.71
2023-05-05T07:11:49.177Z,15.67
2023-05-05T07:12:52.752Z,15.74
2023-05-05T07:13:56.027Z,15.70
2023-05-05T07:14:59.020Z,15.72
2023-05-05T07:16:02.307Z,15.74
2023-05-05T07:17:05.707Z,15.79
2023-05-05T07:18:08.688Z,15.72
2023-05-05T07:19:11.787Z,15.66
2023-05-05T07:20:14.751Z,15.63
2023-05-05T07:21:17.781Z,15.63
2023-05-05T07:22:20.884Z,15.65
2023-05-05T07:23:23.973Z,15.69
2023-05-05T07:24:26.959Z,15.80
2023-05-05T07:25:29.970Z,15.86
2023-05-05T07:26:33.228Z,15.87
2023-05-05T07:27:37.487Z,15.89
2023-05-05T07:28:40.412Z,15.92
2023-05-05T07:29:43.789Z,16.06
2023-05-05T07:30:46.697Z,16.14
2023-05-05T07:31:49.705Z,16.36
2023-05-05T07:32:52.990Z,16.41
2023-05-05T07:33:55.791Z,16.41
2023-05-05T07:34:59.099Z,16.48
2023-05-05T07:36:02.351Z,16.43
2023-05-05T07:37:05.434Z,16.44
2023-05-05T07:38:10.768Z,16.45
2023-05-05T07:39:15.491Z,16.45
2023-05-05T07:40:18.901Z,16.52
2023-05-05T07:41:22.131Z,16.64
2023-05-05T07:42:25.085Z,16.80
2023-05-05T07:43:27.910Z,16.85
2023-05-05T07:44:31.003Z,16.90
2023-05-05T07:45:34.084Z,17.06
2023-05-05T07:46:37.441Z,17.12
2023-05-05T07:47:41.030Z,17.15
2023-05-05T07:48:44.106Z,17.24
2023-05-05T07:49:47.065Z,17.23
2023-05-05T07:50:50.127Z,17.27
2023-05-05T07:51:53.674Z,17.37
2023-05-05T07:53:06.126Z,17.47
2023-05-05T07:54:17.731Z,17.58
2023-05-05T07:55:21.126Z,17.61
2023-05-05T07:56:24.213Z,17.80
2023-05-05T07:57:27.143Z,17.93
2023-05-05T07:58:29.974Z,17.97
2023-05-05T07:59:32.900Z,18.00
2023-05-05T08:00:35.938Z,17.94
2023-05-05T08:01:39.642Z,17.98
2023-05-05T08:02:42.727Z,18.06
2023-05-05T08:03:45.967Z,18.13
2023-05-05T08:04:48.932Z,18.19
2023-05-05T08:05:54.524Z,18.26
2023-05-05T08:06:57.965Z,18.29
2023-05-05T08:08:00.930Z,18.26
2023-05-05T08:09:03.998Z,18.29
2023-05-05T08:10:11.672Z,18.30
2023-05-05T08:11:15.272Z,18.39
2023-05-05T08:12:19.433Z,18.48
2023-05-05T08:13:22.507Z,18.51
2023-05-05T08:14:25.630Z,18.49
2023-05-05T08:15:28.678Z,18.48
2023-05-05T08:16:32.492Z,18.42
2023-05-05T08:17:49.372Z,18.38
2023-05-05T08:18:52.655Z,18.37
2023-05-05T08:19:55.788Z,18.42
2023-05-05T08:20:58.936Z,18.47
2023-05-05T08:22:02.078Z,18.50
2023-05-05T08:23:05.825Z,18.57
2023-05-05T08:24:09.499Z,18.65
2023-05-05T08:25:13.546Z,18.63
2023-05-05T08:26:16.823Z,18.65
2023-05-05T08:27:19.898Z,18.76
2023-05-05T08:28:23.410Z,18.88
2023-05-05T08:29:26.522Z,19.03
2023-05-05T08:30:30.382Z,19.14
2023-05-05T08:31:34.763Z,19.18
2023-05-05T08:32:38.772Z,19.25
2023-05-05T08:33:41.841Z,19.42
2023-05-05T08:34:44.809Z,19.36
2023-05-05T08:35:49.287Z,19.34
2023-05-05T08:36:52.908Z,19.36
2023-05-05T08:37:58.121Z,19.36
2023-05-05T08:39:02.264Z,19.42
2023-05-05T08:40:06.066Z,19.36
2023-05-05T08:41:13.283Z,19.35
2023-05-05T08:42:25.762Z,19.43
2023-05-05T08:43:36.761Z,19.50
2023-05-05T08:44:40.009Z,19.61
2023-05-05T08:45:43.608Z,19.57
2023-05-05T08:46:47.113Z,19.46
2023-05-05T08:47:50.227Z,19.45
2023-05-05T08:48:55.598Z,19.43
2023-05-05T08:49:59.746Z,19.37
2023-05-05T08:51:06.980Z,19.44
2023-05-05T08:52:14.123Z,19.58
2023-05-05T08:53:22.330Z,19.77
2023-05-05T08:54:27.718Z,19.89
2023-05-05T08:55:35.089Z,19.99
2023-05-05T08:56:43.871Z,19.94
2023-05-05T08:57:56.740Z,19.92
2023-05-05T08:59:04.011Z,19.86
2023-05-05T09:00:10.093Z,19.95
2023-05-05T09:01:15.037Z,20.03
2023-05-05T09:02:18.991Z,20.18
2023-05-05T09:03:22.476Z,20.17
2023-05-05T09:04:25.504Z,20.34
2023-05-05T09:05:28.554Z,20.29
2023-05-05T09:06:34.276Z,20.08
2023-05-05T09:07:38.677Z,20.08
2023-05-05T09:08:41.745Z,20.13
2023-05-05T09:09:45.005Z,20.15
2023-05-05T09:10:49.373Z,20.14
2023-05-05T09:11:54.211Z,20.28
2023-05-05T09:12:57.950Z,20.27
2023-05-05T09:15:22.875Z,20.18
2023-05-05T09:16:26.012Z,20.12
2023-05-05T09:17:29.715Z,20.00
2023-05-05T09:18:32.898Z,19.87
2023-05-05T09:20:08.572Z,19.66
2023-05-05T09:21:26.260Z,19.53
2023-05-05T09:22:34.372Z,19.55
2023-05-05T09:23:38.368Z,19.51
2023-05-05T09:24:55.373Z,19.45
2023-05-05T09:26:11.298Z,19.32
2023-05-05T09:27:25.851Z,19.23
2023-05-05T09:28:29.436Z,19.30
2023-05-05T09:29:32.489Z,19.24
2023-05-05T09:30:36.313Z,19.27
2023-05-05T09:31:39.436Z,19.19
2023-05-05T09:32:52.968Z,19.06
2023-05-05T09:33:57.360Z,19.16
2023-05-05T09:35:01.546Z,19.17
2023-05-05T09:36:04.693Z,19.20
2023-05-05T09:37:07.629Z,19.22
2023-05-05T09:38:13.464Z,19.13
2023-05-05T09:39:20.364Z,19.06
2023-05-05T09:40:23.609Z,19.21
2023-05-05T09:41:41.274Z,19.37
2023-05-05T09:42:45.056Z,19.70
2023-05-05T09:43:52.757Z,19.97
2023-05-05T09:44:59.685Z,20.07
2023-05-05T09:46:07.876Z,20.09
2023-05-05T09:47:26.064Z,20.16
2023-05-05T09:48:32.927Z,20.28
2023-05-05T09:49:37.645Z,20.48
2023-05-05T09:50:44.964Z,20.63
2023-05-05T09:51:49.363Z,20.82
2023-05-05T09:53:03.149Z,20.83
2023-05-05T09:54:06.428Z,20.70
2023-05-05T09:55:18.572Z,20.81
2023-05-05T09:56:21.481Z,20.88
2023-05-05T09:57:29.422Z,20.89
2023-05-05T09:58:32.576Z,20.99
2023-05-05T09:59:35.858Z,21.26
2023-05-05T10:00:39.866Z,21.31
2023-05-05T10:01:44.054Z,21.62
2023-05-05T10:02:47.103Z,21.56
2023-05-05T10:03:53.272Z,21.50
2023-05-05T10:05:08.321Z,21.53
2023-05-05T10:06:11.720Z,21.74
2023-05-05T10:07:24.749Z,21.63
2023-05-05T10:08:34.536Z,21.60
2023-05-05T10:09:37.640Z,21.56
2023-05-05T10:10:51.797Z,21.66
2023-05-05T10:11:58.183Z,21.63
2023-05-05T10:13:02.060Z,21.76
2023-05-05T10:14:08.007Z,21.83
2023-05-05T10:15:12.460Z,21.84
2023-05-05T10:16:18.658Z,21.91
2023-05-05T10:17:24.000Z,22.05
2023-05-05T10:18:28.877Z,22.13
2023-05-05T10:19:35.384Z,22.05
2023-05-05T10:20:39.116Z,22.09
2023-05-05T10:21:46.963Z,22.06
2023-05-05T10:22:53.669Z,21.95
2023-05-05T10:24:09.801Z,21.86
2023-05-05T10:25:18.521Z,22.01
2023-05-05T10:26:23.442Z,21.90
2023-05-05T10:27:28.719Z,21.90
2023-05-05T10:28:42.332Z,21.84
2023-05-05T10:29:51.064Z,22.08
2023-05-05T10:30:58.798Z,22.06
2023-05-05T10:32:52.018Z,22.04
2023-05-05T10:34:03.924Z,22.00
2023-05-05T10:35:11.510Z,22.27
2023-05-05T10:36:15.355Z,22.31
2023-05-05T10:37:20.276Z,22.38
2023-05-05T10:38:26.835Z,22.48
2023-05-05T10:39:30.365Z,22.48
2023-05-05T10:40:34.245Z,22.46
2023-05-05T10:41:38.045Z,22.54
2023-05-05T10:42:41.236Z,22.62
2023-05-05T10:43:45.444Z,22.66
2023-05-05T10:44:49.395Z,22.83
2023-05-05T10:45:53.607Z,22.94
2023-05-05T10:46:58.381Z,23.04
2023-05-05T10:48:07.366Z,23.05
2023-05-05T10:49:18.196Z,23.14
2023-05-05T10:50:27.352Z,23.15
2023-05-05T10:51:57.753Z,23.32
2023-05-05T10:53:19.006Z,23.28
2023-05-05T10:55:12.510Z,23.44
2023-05-05T10:56:26.912Z,23.38
2023-05-05T10:57:32.765Z,23.27
2023-05-05T10:58:51.136Z,23.26
2023-05-05T11:00:01.606Z,23.18
2023-05-05T11:01:07.152Z,23.19
2023-05-05T11:02:28.684Z,23.21
2023-05-05T11:03:32.479Z,23.34
2023-05-05T11:04:35.382Z,23.30
2023-05-05T11:06:04.398Z,23.41
2023-05-05T11:07:13.827Z,23.52
2023-05-05T11:08:27.383Z,23.62
2023-05-05T11:09:30.767Z,23.83
2023-05-05T11:10:45.019Z,23.99
2023-05-05T11:12:05.712Z,23.95
2023-05-05T11:13:08.925Z,23.88
2023-05-05T11:14:22.733Z,23.98
2023-05-05T11:15:31.486Z,24.16
2023-05-05T11:16:48.115Z,24.28
2023-05-05T11:17:51.428Z,24.17
2023-05-05T11:18:54.491Z,24.15
2023-05-05T11:19:57.896Z,24.29
2023-05-05T11:21:00.717Z,24.42
2023-05-05T11:22:03.608Z,24.55
2023-05-05T11:23:06.577Z,24.57
2023-05-05T11:24:31.541Z,24.37
2023-05-05T11:25:37.857Z,24.34
2023-05-05T11:26:51.992Z,24.09
2023-05-05T11:28:09.422Z,23.86
2023-05-05T11:29:12.302Z,23.61
2023-05-05T11:30:15.605Z,23.66
2023-05-05T11:31:19.949Z,23.70
2023-05-05T11:32:23.318Z,23.84
2023-05-05T11:33:32.169Z,23.82
2023-05-05T11:34:35.066Z,23.81
2023-05-05T11:36:06.153Z,23.81
2023-05-05T11:37:10.734Z,23.79
2023-05-05T11:38:15.958Z,23.52
2023-05-05T11:39:21.571Z,23.44
2023-05-05T11:40:31.149Z,23.22
2023-05-05T11:41:52.608Z,23.05
2023-05-05T11:43:07.723Z,22.83
2023-05-05T11:44:14.365Z,22.63
2023-05-05T11:45:22.453Z,22.57
2023-05-05T11:46:25.500Z,22.57
2023-05-05T11:47:31.066Z,22.42
2023-05-05T11:48:48.051Z,22.22
2023-05-05T11:49:51.176Z,22.16
2023-05-05T11:50:54.818Z,22.23
2023-05-05T11:52:02.356Z,22.33
2023-05-05T11:53:05.575Z,22.31
2023-05-05T11:54:08.598Z,22.10
2023-05-05T11:55:11.789Z,21.96
2023-05-05T11:56:21.055Z,21.81
2023-05-05T11:57:29.277Z,21.72
2023-05-05T11:58:32.258Z,21.54
2023-05-05T11:59:37.699Z,21.48
2023-05-05T12:00:41.006Z,21.43
2023-05-05T12:01:44.068Z,21.42
2023-05-05T12:02:47.505Z,21.34
2023-05-05T12:03:50.817Z,21.27
2023-05-05T12:04:54.519Z,21.24
2023-05-05T12:05:57.572Z,21.47
2023-05-05T12:07:00.999Z,21.18
2023-05-05T12:08:06.075Z,21.21
2023-05-05T12:09:19.739Z,21.25
2023-05-05T12:10:24.022Z,21.43
2023-05-05T12:11:27.193Z,21.58
2023-05-05T12:12:38.912Z,21.80
2023-05-05T12:13:42.171Z,22.13
2023-05-05T12:14:47.598Z,22.41
2023-05-05T12:15:50.726Z,22.51
2023-05-05T12:16:58.160Z,22.53
2023-05-05T12:18:03.219Z,22.59
2023-05-05T12:19:08.580Z,22.78
2023-05-05T12:20:13.412Z,23.01
2023-05-05T12:21:21.099Z,23.14
2023-05-05T12:22:26.006Z,23.30
2023-05-05T12:23:30.751Z,23.36
2023-05-05T12:24:33.940Z,23.40
2023-05-05T12:25:38.492Z,23.51
2023-05-05T12:26:42.154Z,23.74
2023-05-05T12:27:53.477Z,23.80
2023-05-05T12:29:00.696Z,23.89
2023-05-05T12:30:16.928Z,23.90
2023-05-05T12:31:20.252Z,23.92
2023-05-05T12:32:33.079Z,23.92
2023-05-05T12:33:40.146Z,23.90
2023-05-05T12:34:43.303Z,23.85
2023-05-05T12:35:46.236Z,23.82
2023-05-05T12:36:49.911Z,23.76
2023-05-05T12:37:53.074Z,23.67
2023-05-05T12:38:56.279Z,23.71
2023-05-05T12:39:59.485Z,23.85
2023-05-05T12:41:03.320Z,23.89
2023-05-05T12:42:06.824Z,23.73
2023-05-05T12:43:09.942Z,23.66
2023-05-05T12:44:13.112Z,23.64
2023-05-05T12:45:19.414Z,23.67
2023-05-05T12:46:23.613Z,23.66
2023-05-05T12:47:33.358Z,23.65
2023-05-05T12:48:38.654Z,23.64
2023-05-05T12:49:46.184Z,23.62
2023-05-05T12:50:49.216Z,23.65
2023-05-05T12:51:57.323Z,23.68
2023-05-05T12:53:00.424Z,23.64
2023-05-05T12:54:09.891Z,23.86
2023-05-05T12:55:13.628Z,23.93
2023-05-05T12:56:41.494Z,23.90
2023-05-05T12:58:01.703Z,23.91
2023-05-05T12:59:07.853Z,23.79
2023-05-05T13:00:18.380Z,23.73
2023-05-05T13:01:21.541Z,23.78
2023-05-05T13:02:34.380Z,23.80
2023-05-05T13:03:37.581Z,23.65
2023-05-05T13:04:54.200Z,23.66
2023-05-05T13:05:57.165Z,23.85
2023-05-05T13:07:16.520Z,23.83
2023-05-05T13:08:19.755Z,23.65
2023-05-05T13:09:36.258Z,23.55
2023-05-05T13:10:44.489Z,23.47
2023-05-05T13:11:47.734Z,23.37
2023-05-05T13:12:50.925Z,23.28
2023-05-05T13:13:54.405Z,23.37
2023-05-05T13:14:57.221Z,23.34
2023-05-05T13:16:00.459Z,23.25
2023-05-05T13:17:03.742Z,23.21
2023-05-05T13:18:06.745Z,23.30
2023-05-05T13:19:10.719Z,23.33
2023-05-05T13:20:14.389Z,23.45
2023-05-05T13:21:17.467Z,23.53
2023-05-05T13:22:20.557Z,23.59
2023-05-05T13:23:24.666Z,23.66
2023-05-05T13:24:46.402Z,23.65
2023-05-05T13:25:53.386Z,23.74
2023-05-05T13:26:56.800Z,23.73
2023-05-05T13:27:59.867Z,23.95
2023-05-05T13:29:02.765Z,23.82
2023-05-05T13:30:06.657Z,23.81
2023-05-05T13:31:09.878Z,23.97
2023-05-05T13:32:13.056Z,23.90
2023-05-05T13:33:16.155Z,23.97
2023-05-05T13:34:19.243Z,24.03
2023-05-05T13:35:22.204Z,24.01
2023-05-05T13:36:25.257Z,23.99
2023-05-05T13:37:28.328Z,24.13
2023-05-05T13:38:34.707Z,24.00
2023-05-05T13:39:37.770Z,23.86
2023-05-05T13:40:40.887Z,23.85
2023-05-05T13:41:47.038Z,23.79
2023-05-05T13:42:50.041Z,23.81
2023-05-05T13:43:53.476Z,23.74
2023-05-05T13:44:56.410Z,23.73
2023-05-05T13:46:12.325Z,23.80
2023-05-05T13:47:22.260Z,23.75
2023-05-05T13:48:25.314Z,23.71
2023-05-05T13:49:28.262Z,23.61
2023-05-05T13:50:32.165Z,23.43
2023-05-05T13:51:35.476Z,23.35
2023-05-05T13:52:38.758Z,23.19
2023-05-05T13:53:44.278Z,23.16
2023-05-05T13:54:47.221Z,23.18
2023-05-05T13:55:50.387Z,23.16
2023-05-05T13:56:53.355Z,23.12
2023-05-05T13:57:56.573Z,23.09
2023-05-05T13:58:59.836Z,23.00
2023-05-05T14:00:04.584Z,23.04
2023-05-05T14:01:07.768Z,22.97
2023-05-05T14:02:11.838Z,22.93
2023-05-05T14:03:14.805Z,22.98
2023-05-05T14:04:17.843Z,22.96
2023-05-05T14:05:21.791Z,23.07
2023-05-05T14:06:24.856Z,23.03
2023-05-05T14:07:28.391Z,23.03
2023-05-05T14:08:31.455Z,23.05
2023-05-05T14:09:34.533Z,23.14
2023-05-05T14:10:37.527Z,23.30
2023-05-05T14:11:40.466Z,23.30
2023-05-05T14:12:43.891Z,23.27
2023-05-05T14:13:47.790Z,23.21
2023-05-05T14:14:50.776Z,23.15